createdAt,value
2023-07-01T00:01:29.821Z,18.5
2023-07-01T00:03:29.792Z,18.5
2023-07-01T00:05:29.591Z,18.562
2023-07-01T00:07:29.578Z,18.5
2023-07-01T00:09:29.602Z,18.5
2023-07-01T00:11:29.593Z,18.437
2023-07-01T00:13:29.605Z,18.5
2023-07-01T00:15:29.575Z,18.437
2023-07-01T00:17:29.742Z,18.375
2023-07-01T00:19:29.751Z,18.437
2023-07-01T00:21:29.601Z,18.437
2023-07-01T00:23:29.617Z,18.437
2023-07-01T00:25:29.655Z,18.437
2023-07-01T00:27:29.600Z,18.437
2023-07-01T00:29:29.584Z,18.437
2023-07-01T00:31:30.071Z,18.375
2023-07-01T00:33:29.605Z,18.375
2023-07-01T00:35:29.904Z,18.437
2023-07-01T00:37:29.595Z,18.375
2023-07-01T00:39:29.593Z,18.437
2023-07-01T00:41:29.613Z,18.375
2023-07-01T00:43:29.609Z,18.437
2023-07-01T00:45:29.626Z,18.437
2023-07-01T00:47:29.807Z,18.375
2023-07-01T00:49:29.605Z,18.437
2023-07-01T00:51:29.837Z,18.375
2023-07-01T00:53:29.619Z,18.375
2023-07-01T00:55:29.608Z,18.375
2023-07-01T00:57:29.623Z,18.375
2023-07-01T00:59:29.646Z,18.312
2023-07-01T01:01:29.899Z,18.312
2023-07-01T01:03:30.127Z,18.375
2023-07-01T01:05:29.635Z,18.375
2023-07-01T01:07:30.066Z,18.312
2023-07-01T01:09:29.648Z,18.312
2023-07-01T01:11:29.636Z,18.312
2023-07-01T01:13:29.654Z,18.312
2023-07-01T01:15:29.805Z,18.312
2023-07-01T01:17:29.804Z,18.312
2023-07-01T01:19:29.668Z,18.187
2023-07-01T01:21:29.745Z,18.25
2023-07-01T01:23:29.745Z,18.25
2023-07-01T01:25:29.750Z,18.25
2023-07-01T01:27:29.665Z,18.25
2023-07-01T01:29:29.651Z,18.25
2023-07-01T01:31:29.842Z,18.125
2023-07-01T01:33:29.679Z,18.187
2023-07-01T01:35:29.806Z,18.187
2023-07-01T01:37:29.670Z,18.125
2023-07-01T01:39:29.747Z,18.187
2023-07-01T01:41:29.654Z,18.125
2023-07-01T01:43:29.681Z,18.125
2023-07-01T01:45:29.682Z,18.125
2023-07-01T01:47:30.628Z,18.125
2023-07-01T01:49:29.682Z,18.062
2023-07-01T01:51:29.665Z,18.062
2023-07-01T01:53:29.683Z,18.062
2023-07-01T01:55:29.866Z,18
2023-07-01T01:57:29.683Z,18.062
2023-07-01T01:59:29.997Z,18
2023-07-01T02:01:30.016Z,18
2023-07-01T02:03:30.326Z,18
2023-07-01T02:05:30.249Z,18
2023-07-01T02:07:29.954Z,17.937
2023-07-01T02:09:29.714Z,17.937
2023-07-01T02:11:29.797Z,18
2023-07-01T02:13:29.706Z,17.937
2023-07-01T02:15:29.706Z,17.937
2023-07-01T02:17:30.166Z,17.937
2023-07-01T02:19:29.920Z,17.875
2023-07-01T02:21:29.715Z,17.937
2023-07-01T02:23:29.732Z,17.875
2023-07-01T02:25:29.710Z,17.875
2023-07-01T02:27:29.786Z,17.875
2023-07-01T02:29:29.869Z,17.875
2023-07-01T02:31:30.023Z,17.875
2023-07-01T02:33:29.722Z,17.875
2023-07-01T02:35:29.723Z,17.875
2023-07-01T02:37:30.028Z,17.812
2023-07-01T02:39:29.726Z,17.875
2023-07-01T02:41:29.731Z,17.812
2023-07-01T02:43:29.987Z,17.875
2023-07-01T02:45:29.726Z,17.875
2023-07-01T02:47:30.110Z,17.812
2023-07-01T02:49:29.804Z,17.812
2023-07-01T02:51:30.117Z,17.812
2023-07-01T02:53:29.969Z,17.812
2023-07-01T02:55:29.742Z,17.812
2023-07-01T02:57:29.763Z,17.812
2023-07-01T02:59:30.364Z,17.812
2023-07-01T03:01:29.999Z,17.75
2023-07-01T03:03:30.355Z,17.812
2023-07-01T03:05:29.770Z,17.812
2023-07-01T03:07:29.757Z,17.812
2023-07-01T03:09:29.764Z,17.812
2023-07-01T03:11:29.750Z,17.812
2023-07-01T03:13:29.749Z,17.75
2023-07-01T03:15:29.930Z,17.75
2023-07-01T03:17:30.106Z,17.75
2023-07-01T03:19:29.781Z,17.812
2023-07-01T03:21:29.746Z,17.75
2023-07-01T03:23:29.760Z,17.687
2023-07-01T03:25:29.859Z,17.75
2023-07-01T03:27:29.783Z,17.75
2023-07-01T03:29:29.787Z,17.75
2023-07-01T03:31:30.648Z,17.687
2023-07-01T03:33:30.101Z,17.687
2023-07-01T03:35:29.796Z,17.75
2023-07-01T03:37:29.786Z,17.687
2023-07-01T03:39:29.798Z,17.687
2023-07-01T03:41:29.780Z,17.687
2023-07-01T03:43:29.805Z,17.625
2023-07-01T03:45:29.784Z,17.687
2023-07-01T03:47:30.044Z,17.625
2023-07-01T03:49:29.789Z,17.687
2023-07-01T03:51:29.801Z,17.625
2023-07-01T03:53:29.804Z,17.625
2023-07-01T03:55:29.802Z,17.687
2023-07-01T03:57:29.796Z,17.687
2023-07-01T03:59:29.786Z,17.625
2023-07-01T04:01:29.999Z,17.625
2023-07-01T04:03:30.060Z,17.687
2023-07-01T04:05:29.815Z,17.625
2023-07-01T04:07:29.809Z,17.687
2023-07-01T04:09:29.825Z,17.687
2023-07-01T04:11:30.081Z,17.687
2023-07-01T04:13:29.828Z,17.687
2023-07-01T04:15:29.834Z,17.687
2023-07-01T04:17:30.310Z,17.687
2023-07-01T04:19:30.029Z,17.687
2023-07-01T04:21:30.016Z,17.75
2023-07-01T04:23:29.832Z,17.75
2023-07-01T04:25:30.044Z,17.75
2023-07-01T04:27:29.849Z,17.75
2023-07-01T04:29:29.846Z,17.75
2023-07-01T04:31:30.213Z,17.75
2023-07-01T04:33:29.996Z,17.75
2023-07-01T04:35:30.169Z,17.687
2023-07-01T04:37:29.850Z,17.75
2023-07-01T04:39:29.846Z,17.75
2023-07-01T04:41:29.881Z,17.75
2023-07-01T04:43:29.862Z,17.75
2023-07-01T04:45:29.857Z,17.75
2023-07-01T04:47:30.221Z,17.75
2023-07-01T04:49:29.846Z,17.75
2023-07-01T04:51:29.964Z,17.687
2023-07-01T04:53:29.883Z,17.687
2023-07-01T04:55:29.857Z,17.75
2023-07-01T04:57:29.859Z,17.687
2023-07-01T04:59:29.869Z,17.75
2023-07-01T05:01:30.419Z,17.687
2023-07-01T05:03:30.259Z,17.687
2023-07-01T05:05:30.359Z,17.687
2023-07-01T05:07:31.399Z,17.687
2023-07-01T05:09:29.864Z,17.687
2023-07-01T05:59:30.022Z,17.5
2023-07-01T06:01:30.266Z,17.5
2023-07-01T06:03:30.085Z,17.5
2023-07-01T06:05:29.959Z,17.5
2023-07-01T06:07:29.926Z,17.5
2023-07-01T06:09:29.944Z,17.5
2023-07-01T06:11:29.960Z,17.437
2023-07-01T06:13:29.940Z,17.5
2023-07-01T06:15:30.052Z,17.437
2023-07-01T06:17:30.337Z,17.5
2023-07-01T06:19:30.129Z,17.562
2023-07-01T06:21:29.976Z,17.562
2023-07-01T06:23:29.934Z,17.5
2023-07-01T06:25:29.964Z,17.562
2023-07-01T06:27:29.946Z,17.562
2023-07-01T06:29:29.965Z,17.5
2023-07-01T06:31:30.625Z,17.562
2023-07-01T06:33:29.997Z,17.562
2023-07-01T06:35:29.967Z,17.562
2023-07-01T06:37:29.964Z,17.562
2023-07-01T06:39:29.985Z,17.562
2023-07-01T06:41:29.962Z,17.562
2023-07-01T06:43:29.956Z,17.562
2023-07-01T06:45:30.059Z,17.562
2023-07-01T06:47:30.247Z,17.5
2023-07-01T06:49:30.144Z,17.5
2023-07-01T06:51:29.973Z,17.562
2023-07-01T06:53:29.995Z,17.562
2023-07-01T06:55:30.167Z,17.562
2023-07-01T06:57:29.995Z,17.562
2023-07-01T06:59:30.132Z,17.562
2023-07-01T07:01:30.182Z,17.562
2023-07-01T07:03:30.376Z,17.562
2023-07-01T07:05:29.987Z,17.562
2023-07-01T07:07:29.993Z,17.562
2023-07-01T07:09:30.033Z,17.625
2023-07-01T07:11:29.997Z,17.562
2023-07-01T07:13:29.993Z,17.562
2023-07-01T07:15:29.998Z,17.562
2023-07-01T07:17:30.419Z,17.562
2023-07-01T07:19:30.129Z,17.562
2023-07-01T07:21:30.115Z,17.625
2023-07-01T07:23:30.000Z,17.625
2023-07-01T07:25:30.013Z,17.562
2023-07-01T07:27:30.036Z,17.562
2023-07-01T07:29:30.043Z,17.562
2023-07-01T07:31:30.246Z,17.625
2023-07-01T07:33:30.018Z,17.625
2023-07-01T07:35:30.197Z,17.562
2023-07-01T07:37:30.025Z,17.625
2023-07-01T07:39:30.029Z,17.625
2023-07-01T07:41:30.031Z,17.625
2023-07-01T07:43:33.597Z,17.625
2023-07-01T07:45:30.044Z,17.687
2023-07-01T07:47:30.212Z,17.687
2023-07-01T07:49:30.232Z,17.687
2023-07-01T07:51:30.288Z,17.75
2023-07-01T07:53:30.054Z,17.75
2023-07-01T07:57:30.074Z,17.812
2023-07-01T07:59:30.217Z,17.875
2023-07-01T08:01:30.277Z,21.375
2023-07-01T08:03:30.671Z,27.25
2023-07-01T08:05:30.655Z,22.375
2023-07-01T08:07:30.304Z,22.062
2023-07-01T08:09:30.108Z,22.187
2023-07-01T08:11:30.058Z,22.25
2023-07-01T08:13:30.071Z,22.313
2023-07-01T08:15:30.077Z,22.313
2023-07-01T08:17:30.235Z,22.313
2023-07-01T08:19:30.064Z,22.375
2023-07-01T08:21:30.094Z,22.375
2023-07-01T08:23:30.160Z,22.375
2023-07-01T08:25:30.187Z,22.375
2023-07-01T08:27:30.129Z,22.437
2023-07-01T08:29:30.090Z,22.437
2023-07-01T08:31:30.620Z,22.5
2023-07-01T08:33:30.111Z,22.5
2023-07-01T08:35:30.080Z,22.562
2023-07-01T08:37:30.192Z,22.5
2023-07-01T08:39:30.183Z,22.5
2023-07-01T08:41:30.136Z,22.562
2023-07-01T08:43:30.200Z,22.562
2023-07-01T08:45:30.107Z,22.625
2023-07-01T08:47:30.478Z,22.625
2023-07-01T08:49:30.102Z,22.687
2023-07-01T08:51:30.115Z,22.687
2023-07-01T08:53:30.195Z,22.75
2023-07-01T08:55:30.237Z,22.75
2023-07-01T08:57:30.124Z,22.812
2023-07-01T08:59:30.170Z,22.812
2023-07-01T09:01:30.193Z,22.812
2023-07-01T09:03:30.401Z,22.875
2023-07-01T09:05:30.141Z,22.875
2023-07-01T09:07:30.128Z,22.875
2023-07-01T09:09:30.267Z,22.938
2023-07-01T09:11:30.616Z,22.938
2023-07-01T09:13:30.161Z,22.938
2023-07-01T09:15:30.142Z,23.062
2023-07-01T09:17:30.362Z,23.125
2023-07-01T09:19:30.578Z,23.312
2023-07-01T09:21:30.703Z,23.312
2023-07-01T09:23:30.331Z,23.125
2023-07-01T09:25:30.159Z,23.125
2023-07-01T09:27:30.224Z,23.125
2023-07-01T09:29:30.184Z,23.187
2023-07-01T09:31:30.478Z,23.25
2023-07-01T09:33:30.165Z,23.312
2023-07-01T09:35:30.156Z,23.312
2023-07-01T09:37:34.382Z,23.312
2023-07-01T09:39:30.161Z,23.375
2023-07-01T09:41:30.271Z,23.375
2023-07-01T09:43:30.256Z,23.312
2023-07-01T09:45:30.191Z,23.312
2023-07-01T09:47:30.257Z,23.375
2023-07-01T09:49:30.205Z,23.437
2023-07-01T09:51:30.210Z,23.25
2023-07-01T09:53:30.181Z,22.938
2023-07-01T09:55:30.174Z,23
2023-07-01T09:57:30.203Z,22.812
2023-07-01T09:59:30.391Z,23.062
2023-07-01T10:01:30.232Z,23.375
2023-07-01T10:03:30.619Z,23.375
2023-07-01T10:05:30.229Z,23.187
2023-07-01T10:07:30.318Z,22.938
2023-07-01T10:09:30.201Z,22.875
2023-07-01T10:11:30.237Z,23.187
2023-07-01T10:13:30.221Z,23.375
2023-07-01T10:15:30.687Z,23.375
2023-07-01T10:17:30.333Z,23.375
2023-07-01T10:19:30.332Z,23.062
2023-07-01T10:21:30.294Z,22.687
2023-07-01T10:23:30.209Z,22.938
2023-07-01T10:25:30.227Z,23.312
2023-07-01T10:27:30.225Z,23.5
2023-07-01T10:29:30.543Z,23.25
2023-07-01T10:31:30.984Z,23.125
2023-07-01T10:33:30.252Z,23.375
2023-07-01T10:35:30.230Z,23.625
2023-07-01T10:37:30.238Z,23.75
2023-07-01T10:39:30.492Z,23.5
2023-07-01T10:41:30.273Z,23.25
2023-07-01T10:43:30.278Z,22.938
2023-07-01T10:45:30.312Z,23
2023-07-01T10:47:30.655Z,23.125
2023-07-01T10:49:30.276Z,22.938
2023-07-01T10:51:30.257Z,23.125
2023-07-01T10:53:30.242Z,23.437
2023-07-01T10:55:30.276Z,23.625
2023-07-01T10:57:30.284Z,23.687
2023-07-01T10:59:30.351Z,23.5
2023-07-01T11:01:30.406Z,23.125
2023-07-01T11:03:30.820Z,22.812
2023-07-01T11:05:30.347Z,22.687
2023-07-01T11:07:30.281Z,22.687
2023-07-01T11:09:30.339Z,22.625
2023-07-01T11:11:30.293Z,22.687
2023-07-01T11:13:30.274Z,22.812
2023-07-01T11:15:30.352Z,22.812
2023-07-01T11:17:30.614Z,23
2023-07-01T11:19:30.360Z,23.187
2023-07-01T11:21:30.343Z,23.25
2023-07-01T11:23:30.297Z,23.563
2023-07-01T11:25:30.304Z,23.312
2023-07-01T11:27:30.314Z,23
2023-07-01T11:29:30.401Z,23.312
2023-07-01T11:31:30.558Z,23.687
2023-07-01T11:33:30.299Z,23.875
2023-07-01T11:35:30.369Z,23.875
2023-07-01T11:37:30.645Z,23.812
2023-07-01T11:39:30.488Z,23.75
2023-07-01T11:41:30.305Z,23.563
2023-07-01T11:43:30.360Z,23.25
2023-07-01T11:45:30.308Z,23.062
2023-07-01T11:47:30.431Z,23.062
2023-07-01T11:49:30.445Z,23.25
2023-07-01T11:51:30.424Z,23.25
2023-07-01T11:53:30.435Z,23.125
2023-07-01T11:55:30.530Z,22.938
2023-07-01T11:57:30.353Z,23
2023-07-01T11:59:30.495Z,23
2023-07-01T12:01:30.479Z,22.938
2023-07-01T12:03:30.570Z,22.938
2023-07-01T12:05:30.465Z,23
2023-07-01T12:07:30.868Z,23
2023-07-01T12:09:30.400Z,23
2023-07-01T12:11:30.406Z,23.062
2023-07-01T12:13:30.498Z,23.187
2023-07-01T12:15:30.347Z,23.187
2023-07-01T12:17:31.016Z,23.187
2023-07-01T12:19:30.398Z,23.25
2023-07-01T12:21:30.513Z,23.375
2023-07-01T12:23:30.454Z,23.687
2023-07-01T12:25:30.398Z,23.875
2023-07-01T12:27:30.437Z,23.937
2023-07-01T12:29:30.400Z,23.875
2023-07-01T12:31:30.585Z,23.687
2023-07-01T12:33:30.787Z,23.437
2023-07-01T12:35:30.385Z,23.312
2023-07-01T12:37:30.388Z,23.312
2023-07-01T12:39:30.450Z,23.25
2023-07-01T12:41:30.378Z,23.187
2023-07-01T12:43:30.400Z,23.062
2023-07-01T12:45:30.465Z,23.062
2023-07-01T12:47:30.996Z,23
2023-07-01T12:49:30.429Z,22.938
2023-07-01T12:51:30.401Z,23
2023-07-01T12:53:30.404Z,23.062
2023-07-01T12:55:30.759Z,23.062
2023-07-01T12:57:30.454Z,23
2023-07-01T12:59:30.422Z,23.062
2023-07-01T13:01:30.676Z,23
2023-07-01T13:03:30.414Z,23.062
2023-07-01T13:05:30.829Z,23.062
2023-07-01T13:07:30.450Z,23.062
2023-07-01T13:09:30.450Z,23.062
2023-07-01T13:11:33.617Z,23
2023-07-01T13:13:30.437Z,23
2023-07-01T13:15:30.498Z,22.875
2023-07-01T13:17:34.922Z,22.875
2023-07-01T13:19:30.440Z,22.875
2023-07-01T13:21:30.476Z,22.812
2023-07-01T13:23:33.878Z,22.812
2023-07-01T13:25:30.441Z,22.812
2023-07-01T13:27:30.835Z,22.812
2023-07-01T13:29:30.443Z,22.812
2023-07-01T13:31:31.066Z,22.75
2023-07-01T13:33:30.459Z,22.75
2023-07-01T13:35:30.473Z,22.75
2023-07-01T13:37:30.445Z,22.75
2023-07-01T13:39:30.606Z,22.75
2023-07-01T13:41:30.472Z,22.75
2023-07-01T13:43:30.861Z,22.687
2023-07-01T13:45:30.486Z,22.75
2023-07-01T13:47:31.214Z,22.75
2023-07-01T13:49:30.680Z,22.75
2023-07-01T13:51:30.488Z,22.687
2023-07-01T13:53:30.509Z,22.75
2023-07-01T13:55:30.621Z,22.75
2023-07-01T13:57:30.961Z,22.75
2023-07-01T13:59:30.663Z,22.75
2023-07-01T14:01:30.676Z,22.75
2023-07-01T14:03:30.826Z,22.75
2023-07-01T14:05:30.502Z,22.75
2023-07-01T14:07:30.504Z,22.75
2023-07-01T14:09:30.487Z,22.75
2023-07-01T14:11:30.662Z,22.75
2023-07-01T14:13:30.636Z,22.75
2023-07-01T14:15:30.560Z,22.75
2023-07-01T14:17:30.928Z,22.75
2023-07-01T14:19:30.877Z,22.75
2023-07-01T14:21:30.525Z,22.75
2023-07-01T14:23:30.517Z,22.75
2023-07-01T14:25:30.496Z,22.75
2023-07-01T14:27:30.633Z,22.75
2023-07-01T14:29:30.511Z,22.75
2023-07-01T14:31:30.941Z,22.75
2023-07-01T14:33:30.513Z,22.75
2023-07-01T14:35:30.530Z,22.75
2023-07-01T14:37:30.547Z,22.75
2023-07-01T14:39:30.549Z,22.75
2023-07-01T14:41:30.577Z,22.75
2023-07-01T14:43:30.530Z,22.75
2023-07-01T14:45:30.551Z,22.75
2023-07-01T14:47:30.892Z,22.812
2023-07-01T14:49:30.560Z,22.75
2023-07-01T14:51:30.569Z,22.75
2023-07-01T14:53:30.805Z,22.687
2023-07-01T14:55:30.574Z,22.687
2023-07-01T14:57:30.557Z,22.687
2023-07-01T14:59:30.574Z,22.687
2023-07-01T15:01:30.791Z,22.687
2023-07-01T15:03:31.418Z,22.687
2023-07-01T15:05:30.555Z,22.687
2023-07-01T15:07:30.563Z,22.687
2023-07-01T15:09:30.581Z,22.687
2023-07-01T15:11:30.562Z,22.687
2023-07-01T15:13:30.571Z,22.687
2023-07-01T15:15:30.565Z,22.687
2023-07-01T15:17:30.704Z,22.687
2023-07-01T15:19:30.724Z,22.687
2023-07-01T15:21:30.684Z,22.687
2023-07-01T15:23:30.581Z,22.625
2023-07-01T15:25:30.603Z,22.625
2023-07-01T15:27:30.606Z,22.625
2023-07-01T15:29:30.655Z,22.625
2023-07-01T15:31:30.681Z,22.687
2023-07-01T15:33:30.593Z,22.562
2023-07-01T15:35:30.690Z,22.625
2023-07-01T15:37:30.662Z,22.625
2023-07-01T15:39:30.603Z,22.562
2023-07-01T15:41:48.971Z,22.562
2023-07-01T15:43:30.742Z,22.687
2023-07-01T15:45:30.599Z,22.562
2023-07-01T15:47:31.025Z,22.562
2023-07-01T15:51:30.690Z,22.562
2023-07-01T15:53:30.640Z,22.5
2023-07-01T15:55:30.646Z,22.562
2023-07-01T15:57:31.046Z,22.5
2023-07-01T15:59:30.628Z,22.5
2023-07-01T16:01:30.645Z,22.5
2023-07-01T16:03:31.267Z,22.5
2023-07-01T16:05:30.631Z,22.5
2023-07-01T16:07:30.706Z,22.5
2023-07-01T16:09:30.611Z,22.437
2023-07-01T16:11:30.646Z,22.437
2023-07-01T16:13:30.612Z,22.5
2023-07-01T16:15:30.642Z,22.5
2023-07-01T16:21:30.697Z,22.5
2023-07-01T16:23:31.165Z,22.437
2023-07-01T16:25:30.629Z,22.437
2023-07-01T16:29:30.632Z,22.5
2023-07-01T16:31:31.289Z,22.5
2023-07-01T16:35:30.737Z,22.5
2023-07-01T16:37:30.786Z,22.5
2023-07-01T16:43:30.688Z,22.5
2023-07-01T16:45:30.652Z,22.5
2023-07-01T16:49:30.683Z,22.5
2023-07-01T16:51:30.700Z,22.5
2023-07-01T16:53:31.304Z,22.5
2023-07-01T16:57:30.698Z,22.5
2023-07-01T17:01:30.882Z,22.437
2023-07-01T17:03:30.959Z,22.437
2023-07-01T17:07:31.020Z,22.437
2023-07-01T17:09:30.658Z,22.437
2023-07-01T17:11:30.762Z,22.375
2023-07-01T17:13:30.733Z,22.437
2023-07-01T17:15:30.762Z,22.375
2023-07-01T17:17:31.184Z,22.375
2023-07-01T17:19:30.785Z,22.375
2023-07-01T17:21:30.737Z,22.375
2023-07-01T17:23:30.748Z,22.375
2023-07-01T17:25:30.769Z,22.375
2023-07-01T17:27:30.814Z,22.375
2023-07-01T17:29:30.752Z,22.313
2023-07-01T17:31:31.313Z,22.375
2023-07-01T17:33:30.779Z,22.375
2023-07-01T17:35:34.608Z,22.375
2023-07-01T17:37:30.753Z,22.375
2023-07-01T17:39:30.749Z,22.313
2023-07-01T17:41:31.642Z,22.375
2023-07-01T17:43:30.973Z,22.375
2023-07-01T17:45:30.762Z,22.313
2023-07-01T17:47:30.989Z,22.25
2023-07-01T18:15:31.069Z,21.562
2023-07-01T18:17:31.060Z,21.375
2023-07-01T18:19:30.824Z,21.375
2023-07-01T18:21:30.788Z,21.312
2023-07-01T18:23:32.292Z,21.25
2023-07-01T18:25:30.834Z,21.187
2023-07-01T18:27:30.798Z,21.063
2023-07-01T18:29:30.823Z,21.063
2023-07-01T18:31:31.274Z,21.063
2023-07-01T18:33:30.826Z,20.937
2023-07-01T18:35:30.816Z,20.937
2023-07-01T18:37:30.808Z,20.875
2023-07-01T18:39:30.795Z,20.875
2023-07-01T18:41:30.796Z,20.812
2023-07-01T18:43:30.816Z,20.75
2023-07-01T18:45:30.820Z,20.75
2023-07-01T18:47:31.169Z,20.75
2023-07-01T18:49:30.803Z,20.75
2023-07-01T18:51:30.959Z,20.687
2023-07-01T18:53:30.961Z,20.625
2023-07-01T18:55:30.829Z,20.562
2023-07-01T18:57:30.841Z,20.562
2023-07-01T18:59:30.826Z,20.562
2023-07-01T19:01:31.145Z,20.5
2023-07-01T19:03:31.406Z,20.5
2023-07-01T19:05:30.841Z,20.5
2023-07-01T19:07:30.845Z,20.5
2023-07-01T19:09:30.848Z,20.438
2023-07-01T19:11:30.858Z,20.375
2023-07-01T19:13:30.858Z,20.312
2023-07-01T19:15:30.881Z,20.312
2023-07-01T19:17:31.212Z,20.312
2023-07-01T19:19:31.065Z,20.25
2023-07-01T19:21:30.873Z,20.25
2023-07-01T19:23:30.852Z,20.25
2023-07-01T19:25:34.961Z,20.187
2023-07-01T19:27:31.081Z,20.187
2023-07-01T19:29:30.883Z,20.125
2023-07-01T19:31:31.155Z,20.125
2023-07-01T19:33:30.900Z,20.125
2023-07-01T19:35:30.966Z,20.062
2023-07-01T19:37:30.884Z,20.062
2023-07-01T19:39:30.902Z,20
2023-07-01T19:41:30.884Z,20.062
2023-07-01T19:43:30.892Z,20
2023-07-01T19:45:30.887Z,20
2023-07-01T19:47:31.113Z,20
2023-07-01T19:49:30.878Z,20
2023-07-01T19:51:30.951Z,20
2023-07-01T19:53:30.897Z,20
2023-07-01T19:55:30.966Z,19.937
2023-07-01T19:57:30.901Z,20
2023-07-01T19:59:30.882Z,19.937
2023-07-01T20:01:30.915Z,19.875
2023-07-01T20:03:31.139Z,19.812
2023-07-01T20:05:31.607Z,19.875
2023-07-01T20:07:31.070Z,19.875
2023-07-01T20:09:30.961Z,19.812
2023-07-01T20:11:30.912Z,19.75
2023-07-01T20:13:30.913Z,19.812
2023-07-01T20:15:31.134Z,19.812
2023-07-01T20:17:31.126Z,19.812
2023-07-01T20:19:30.927Z,19.812
2023-07-01T20:21:30.944Z,19.75
2023-07-01T20:23:31.075Z,19.687
2023-07-01T20:25:30.942Z,19.687
2023-07-01T20:27:30.916Z,19.687
2023-07-01T20:29:30.958Z,19.625
2023-07-01T20:31:31.030Z,19.687
2023-07-01T20:33:31.025Z,19.75
2023-07-01T20:35:30.951Z,19.625
2023-07-01T20:37:30.933Z,19.625
2023-07-01T20:39:31.128Z,19.687
2023-07-01T20:41:30.945Z,19.625
2023-07-01T20:43:30.951Z,19.625
2023-07-01T20:45:30.975Z,19.562
2023-07-01T20:47:31.261Z,19.562
2023-07-01T20:49:30.932Z,19.625
2023-07-01T20:51:31.007Z,19.562
2023-07-01T20:53:30.965Z,19.562
2023-07-01T20:55:31.098Z,19.5
2023-07-01T20:57:31.101Z,19.5
2023-07-01T20:59:30.949Z,19.5
2023-07-01T21:01:31.124Z,19.5
2023-07-01T21:03:31.345Z,19.5
2023-07-01T21:05:30.961Z,19.5
2023-07-01T21:07:30.973Z,19.5
2023-07-01T21:09:30.963Z,19.5
2023-07-01T21:11:31.094Z,19.5
2023-07-01T21:13:30.976Z,19.5
2023-07-01T21:15:30.983Z,19.5
2023-07-01T21:17:31.183Z,19.437
2023-07-01T21:19:31.132Z,19.437
2023-07-01T21:21:30.999Z,19.437
2023-07-01T21:23:30.957Z,19.437
2023-07-01T21:25:31.019Z,19.437
2023-07-01T21:27:31.148Z,19.375
2023-07-01T21:29:31.025Z,19.375
2023-07-01T21:31:31.378Z,19.375
2023-07-01T21:33:30.981Z,19.437
2023-07-01T21:35:31.029Z,19.437
2023-07-01T21:37:31.028Z,19.312
2023-07-01T21:39:31.011Z,19.375
2023-07-01T21:41:31.004Z,19.312
2023-07-01T21:43:31.104Z,19.312
2023-07-01T21:45:31.004Z,19.25
2023-07-01T21:47:31.253Z,19.312
2023-07-01T21:49:31.064Z,19.312
2023-07-01T21:51:31.008Z,19.312
2023-07-01T21:53:31.022Z,19.312
2023-07-01T21:55:31.028Z,19.312
2023-07-01T21:57:31.026Z,19.312
2023-07-01T21:59:31.153Z,19.312
2023-07-01T22:01:31.245Z,19.25
2023-07-01T22:03:31.829Z,19.312
2023-07-01T22:05:31.064Z,19.25
2023-07-01T22:07:33.587Z,19.25
2023-07-01T22:09:31.189Z,19.25
2023-07-01T22:11:31.168Z,19.312
2023-07-01T22:13:31.166Z,19.25
2023-07-01T22:15:31.390Z,19.25
2023-07-01T22:17:31.474Z,19.25
2023-07-01T22:19:31.170Z,19.312
2023-07-01T22:21:32.608Z,19.25
2023-07-01T22:23:31.194Z,19.25
2023-07-01T22:25:31.614Z,19.312
2023-07-01T22:27:32.247Z,19.312
2023-07-01T22:29:31.042Z,19.312
2023-07-01T22:31:31.371Z,19.312
2023-07-01T22:33:31.070Z,19.312
2023-07-01T22:35:31.079Z,19.375
2023-07-01T22:37:31.058Z,19.375
2023-07-01T22:39:31.104Z,19.437
2023-07-01T22:41:31.058Z,19.437
2023-07-01T22:43:31.063Z,19.437
2023-07-01T22:45:31.074Z,19.437
2023-07-01T22:47:31.444Z,19.5
2023-07-01T22:49:31.113Z,19.5
2023-07-01T22:51:31.456Z,19.5
2023-07-01T22:53:31.981Z,19.5
2023-07-01T22:55:31.104Z,19.562
2023-07-01T22:57:31.216Z,19.562
2023-07-01T22:59:31.123Z,19.625
2023-07-01T23:01:31.078Z,19.562
2023-07-01T23:03:31.619Z,19.562
2023-07-01T23:05:31.693Z,19.625
2023-07-01T23:07:31.352Z,19.625
2023-07-01T23:09:31.120Z,19.562
2023-07-01T23:11:31.138Z,19.562
2023-07-01T23:13:31.094Z,19.562
2023-07-01T23:15:31.133Z,19.562
2023-07-01T23:17:31.177Z,19.5
2023-07-01T23:19:31.185Z,19.562
2023-07-01T23:21:31.144Z,19.5
2023-07-01T23:23:31.856Z,19.5
2023-07-01T23:25:31.094Z,19.437
2023-07-01T23:27:31.121Z,19.437
2023-07-01T23:29:31.108Z,19.437
2023-07-01T23:31:31.301Z,19.375
2023-07-01T23:33:31.441Z,19.375
2023-07-01T23:35:31.355Z,19.375
2023-07-01T23:37:31.126Z,19.312
2023-07-01T23:39:31.124Z,19.25
2023-07-01T23:41:31.172Z,19.25
2023-07-01T23:43:31.112Z,19.25
2023-07-01T23:45:31.164Z,19.187
2023-07-01T23:47:31.276Z,19.187
2023-07-01T23:49:31.220Z,19.187
2023-07-01T23:51:31.250Z,19.187
2023-07-01T23:53:31.120Z,19.125
2023-07-01T23:55:31.137Z,19.187
2023-07-01T23:57:31.126Z,19.125
2023-07-01T23:59:31.310Z,19.125
